createdAt,value
2023-06-28T00:01:15.042Z,82.35
2023-06-28T00:04:01.578Z,82.12
2023-06-28T00:06:28.598Z,82.30
2023-06-28T00:08:55.199Z,82.83
2023-06-28T00:11:21.792Z,82.91
2023-06-28T00:13:48.444Z,82.78
2023-06-28T00:16:15.511Z,82.75
2023-06-28T00:18:43.795Z,83.01
2023-06-28T00:21:13.933Z,83.53
2023-06-28T00:23:41.551Z,84.29
2023-06-28T00:26:08.190Z,84.75
2023-06-28T00:28:34.892Z,84.26
2023-06-28T00:31:02.012Z,84.39
2023-06-28T00:33:28.708Z,83.75
2023-06-28T00:35:55.294Z,84.95
2023-06-28T00:38:21.911Z,84.76
2023-06-28T00:40:48.897Z,83.75
2023-06-28T00:43:15.489Z,83.84
2023-06-28T00:45:43.200Z,83.92
2023-06-28T00:48:10.435Z,84.01
2023-06-28T00:50:37.980Z,83.94
2023-06-28T00:53:05.455Z,83.84
2023-06-28T00:55:32.082Z,84.04
2023-06-28T00:57:58.947Z,83.88
2023-06-28T01:00:27.075Z,84.90
2023-06-28T01:02:53.893Z,84.66
2023-06-28T01:05:20.994Z,84.80
2023-06-28T01:07:52.407Z,84.22
2023-06-28T01:10:20.346Z,85.15
2023-06-28T01:12:48.151Z,84.75
2023-06-28T01:15:15.232Z,84.91
2023-06-28T01:17:42.187Z,85.57
2023-06-28T01:20:09.551Z,85.53
2023-06-28T01:22:41.018Z,85.62
2023-06-28T01:25:10.551Z,85.23
2023-06-28T01:27:40.764Z,85.37
2023-06-28T01:30:11.558Z,84.87
2023-06-28T01:32:38.247Z,85.42
2023-06-28T01:35:05.993Z,86.35
2023-06-28T01:37:33.168Z,87.00
2023-06-28T01:40:01.050Z,86.66
2023-06-28T01:42:28.184Z,86.63
2023-06-28T01:44:54.851Z,86.01
2023-06-28T01:47:21.560Z,85.63
2023-06-28T01:49:48.544Z,85.78
2023-06-28T01:52:15.900Z,86.33
2023-06-28T01:54:42.499Z,86.06
2023-06-28T01:57:09.043Z,85.79
2023-06-28T01:59:36.433Z,85.21
2023-06-28T02:02:03.818Z,85.37
2023-06-28T02:04:32.750Z,85.31
2023-06-28T02:07:00.117Z,85.82
2023-06-28T02:09:26.790Z,85.95
2023-06-28T02:11:53.369Z,86.05
2023-06-28T02:14:19.918Z,86.36
2023-06-28T02:16:46.544Z,86.04
2023-06-28T02:19:16.960Z,86.52
2023-06-28T02:21:44.571Z,86.91
2023-06-28T02:24:11.140Z,87.32
2023-06-28T02:26:39.379Z,86.60
2023-06-28T02:29:06.055Z,86.00
2023-06-28T02:31:32.696Z,85.95
2023-06-28T02:33:59.385Z,86.41
2023-06-28T02:36:25.950Z,87.69
2023-06-28T02:38:52.893Z,87.26
2023-06-28T02:41:19.488Z,86.20
2023-06-28T02:43:46.105Z,86.54
2023-06-28T02:46:13.203Z,86.53
2023-06-28T02:48:40.001Z,86.82
2023-06-28T02:51:06.625Z,86.74
2023-06-28T02:53:33.310Z,87.13
2023-06-28T02:55:59.969Z,87.62
2023-06-28T02:58:55.518Z,88.44
2023-06-28T03:01:22.460Z,87.30
2023-06-28T03:03:49.242Z,87.49
2023-06-28T03:06:16.033Z,87.73
2023-06-28T03:08:42.660Z,88.12
2023-06-28T03:11:09.277Z,88.24
2023-06-28T03:13:35.892Z,88.79
2023-06-28T03:16:02.516Z,88.96
2023-06-28T03:18:29.540Z,89.04
2023-06-28T03:20:56.838Z,89.33
2023-06-28T03:23:23.391Z,88.99
2023-06-28T03:25:50.291Z,89.11
2023-06-28T03:28:17.056Z,89.23
2023-06-28T03:30:43.834Z,89.87
2023-06-28T03:33:10.764Z,89.98
2023-06-28T03:35:37.387Z,90.12
2023-06-28T03:38:04.102Z,90.74
2023-06-28T03:40:30.758Z,91.39
2023-06-28T03:42:57.445Z,91.20
2023-06-28T03:45:24.074Z,91.66
2023-06-28T03:47:50.745Z,91.75
2023-06-28T03:50:17.480Z,91.63
2023-06-28T03:52:44.053Z,91.01
2023-06-28T03:55:12.638Z,91.30
2023-06-28T03:57:40.690Z,91.39
2023-06-28T04:00:10.741Z,91.31
2023-06-28T04:02:41.455Z,91.35
2023-06-28T04:05:08.961Z,91.20
2023-06-28T04:07:35.707Z,91.03
2023-06-28T04:10:03.850Z,91.03
2023-06-28T04:12:30.514Z,91.16
2023-06-28T04:14:57.128Z,91.46
2023-06-28T04:17:23.770Z,91.94
2023-06-28T04:19:50.467Z,91.88
2023-06-28T04:22:17.201Z,91.73
2023-06-28T04:24:43.828Z,91.94
2023-06-28T04:27:10.441Z,92.01
2023-06-28T04:29:36.989Z,91.57
2023-06-28T04:32:19.819Z,91.49
2023-06-28T04:34:46.671Z,91.45
2023-06-28T04:37:16.068Z,91.24
2023-06-28T04:39:44.445Z,90.56
2023-06-28T04:42:14.971Z,90.09
2023-06-28T04:44:47.585Z,89.72
2023-06-28T04:47:17.885Z,89.26
2023-06-28T04:49:49.478Z,89.34
2023-06-28T04:52:19.450Z,89.00
2023-06-28T04:54:46.801Z,88.79
2023-06-28T04:57:14.848Z,88.16
2023-06-28T04:59:42.213Z,87.95
2023-06-28T05:02:09.879Z,87.40
2023-06-28T05:04:40.427Z,87.35
2023-06-28T05:07:09.714Z,86.97
2023-06-28T05:09:38.225Z,86.75
2023-06-28T05:12:05.761Z,86.40
2023-06-28T05:14:32.563Z,86.61
2023-06-28T05:16:59.273Z,86.11
2023-06-28T05:19:26.370Z,85.46
2023-06-28T05:21:54.575Z,85.42
2023-06-28T05:24:21.685Z,84.85
2023-06-28T05:26:48.378Z,84.10
2023-06-28T05:29:14.971Z,84.54
2023-06-28T05:31:42.864Z,84.41
2023-06-28T05:34:11.633Z,83.53
2023-06-28T05:36:38.328Z,83.03
2023-06-28T05:39:04.981Z,83.32
2023-06-28T05:41:31.577Z,82.85
2023-06-28T05:43:58.161Z,82.47
2023-06-28T05:46:24.688Z,81.48
2023-06-28T05:48:51.465Z,81.03
2023-06-28T05:51:18.146Z,80.21
2023-06-28T05:53:44.926Z,80.09
2023-06-28T05:56:11.619Z,80.17
2023-06-28T05:58:38.300Z,79.86
2023-06-28T06:01:04.869Z,79.98
2023-06-28T06:03:31.606Z,79.21
2023-06-28T06:05:58.633Z,79.13
2023-06-28T06:08:25.232Z,79.04
2023-06-28T06:10:51.808Z,79.27
2023-06-28T06:13:38.927Z,79.18
2023-06-28T06:16:05.553Z,78.86
2023-06-28T06:18:32.180Z,78.69
2023-06-28T06:20:58.975Z,78.49
2023-06-28T06:23:25.713Z,78.00
2023-06-28T06:25:52.837Z,78.48
2023-06-28T06:28:19.427Z,78.80
2023-06-28T06:30:46.457Z,78.12
2023-06-28T06:33:13.587Z,77.82
2023-06-28T06:35:40.240Z,77.96
2023-06-28T06:38:06.806Z,77.73
2023-06-28T06:40:34.297Z,77.59
2023-06-28T06:43:00.839Z,78.07
2023-06-28T06:45:27.411Z,78.10
2023-06-28T06:47:54.142Z,78.20
2023-06-28T06:50:20.839Z,78.24
2023-06-28T06:52:47.459Z,78.29
2023-06-28T06:55:14.221Z,78.10
2023-06-28T06:57:40.921Z,77.77
2023-06-28T07:00:09.424Z,77.06
2023-06-28T07:02:36.411Z,77.06
2023-06-28T07:05:03.178Z,76.42
2023-06-28T07:07:29.849Z,76.53
2023-06-28T07:09:56.438Z,76.69
2023-06-28T07:12:23.073Z,76.27
2023-06-28T07:14:50.064Z,76.10
2023-06-28T07:17:17.119Z,76.06
2023-06-28T07:19:43.748Z,75.64
2023-06-28T07:22:10.410Z,75.78
2023-06-28T07:24:37.079Z,74.77
2023-06-28T07:27:04.052Z,74.39
2023-06-28T07:29:33.142Z,73.79
2023-06-28T07:31:59.788Z,73.80
2023-06-28T07:34:26.435Z,73.11
2023-06-28T07:36:53.042Z,73.27
2023-06-28T07:39:19.710Z,73.12
2023-06-28T07:41:46.284Z,72.85
2023-06-28T07:44:12.835Z,72.94
2023-06-28T07:46:39.516Z,71.70
2023-06-28T07:49:06.099Z,70.97
2023-06-28T07:51:32.678Z,70.47
2023-06-28T07:53:59.351Z,70.18
2023-06-28T07:56:25.924Z,70.40
2023-06-28T07:58:52.612Z,70.47
2023-06-28T08:01:19.203Z,70.16
2023-06-28T08:03:45.996Z,69.74
2023-06-28T08:06:12.681Z,68.89
2023-06-28T08:08:39.405Z,69.03
2023-06-28T08:11:06.244Z,67.84
2023-06-28T08:13:33.162Z,67.88
2023-06-28T08:15:59.929Z,68.34
2023-06-28T08:18:27.066Z,67.50
2023-06-28T08:20:53.892Z,65.53
2023-06-28T08:23:21.866Z,64.80
2023-06-28T08:25:48.507Z,64.28
2023-06-28T08:28:15.182Z,64.29
2023-06-28T08:30:41.823Z,64.46
2023-06-28T08:33:08.600Z,64.55
2023-06-28T08:35:35.305Z,64.06
2023-06-28T08:38:02.420Z,63.26
2023-06-28T08:40:30.471Z,63.36
2023-06-28T08:43:01.012Z,63.10
2023-06-28T08:45:31.116Z,62.91
2023-06-28T08:47:59.093Z,63.34
2023-06-28T08:50:26.524Z,62.75
2023-06-28T08:52:53.912Z,60.81
2023-06-28T08:55:21.976Z,59.57
2023-06-28T08:57:48.628Z,60.84
2023-06-28T09:00:15.636Z,61.14
2023-06-28T09:02:45.983Z,59.92
2023-06-28T09:05:13.144Z,60.09
2023-06-28T09:07:41.311Z,60.25
2023-06-28T09:10:11.305Z,59.89
2023-06-28T09:12:39.517Z,59.99
2023-06-28T09:15:07.139Z,59.65
2023-06-28T09:17:33.999Z,59.71
2023-06-28T09:20:08.293Z,60.54
2023-06-28T09:22:34.889Z,60.70
2023-06-28T09:25:05.876Z,60.27
2023-06-28T09:27:32.441Z,60.44
2023-06-28T09:30:21.878Z,60.81
2023-06-28T09:32:52.615Z,61.21
2023-06-28T09:35:20.670Z,60.72
2023-06-28T09:37:51.232Z,60.31
2023-06-28T09:40:18.572Z,60.11
2023-06-28T09:42:47.418Z,59.57
2023-06-28T09:45:38.096Z,58.38
2023-06-28T09:48:05.384Z,56.19
2023-06-28T09:50:41.903Z,56.01
2023-06-28T09:53:14.548Z,56.73
2023-06-28T09:55:43.348Z,58.03
2023-06-28T09:58:15.403Z,60.10
2023-06-28T10:00:43.638Z,62.27
2023-06-28T10:03:12.367Z,62.32
2023-06-28T10:05:42.411Z,63.50
2023-06-28T10:08:14.557Z,66.80
2023-06-28T10:10:43.137Z,70.04
2023-06-28T10:13:12.895Z,71.51
2023-06-28T10:15:48.837Z,72.14
2023-06-28T10:18:16.584Z,73.04
2023-06-28T10:20:43.826Z,74.44
2023-06-28T10:23:13.763Z,75.69
2023-06-28T10:25:42.192Z,76.26
2023-06-28T10:28:09.982Z,76.04
2023-06-28T10:30:39.749Z,72.84
2023-06-28T10:33:07.307Z,71.86
2023-06-28T10:35:34.796Z,72.56
2023-06-28T10:38:01.615Z,72.38
2023-06-28T10:40:28.720Z,71.86
2023-06-28T10:42:55.438Z,70.44
2023-06-28T10:45:35.621Z,69.36
2023-06-28T10:48:03.478Z,68.15
2023-06-28T10:50:41.646Z,67.34
2023-06-28T10:53:20.279Z,66.74
2023-06-28T10:56:15.082Z,67.43
2023-06-28T10:58:42.926Z,63.20
2023-06-28T11:01:14.022Z,63.25
2023-06-28T11:03:44.981Z,62.74
2023-06-28T11:06:13.358Z,61.46
2023-06-28T11:08:43.782Z,61.32
2023-06-28T11:11:31.727Z,60.63
2023-06-28T11:13:58.301Z,60.08
2023-06-28T11:16:25.515Z,60.78
2023-06-28T11:18:53.311Z,59.70
2023-06-28T11:21:25.170Z,59.22
2023-06-28T11:23:56.777Z,58.43
2023-06-28T11:26:42.787Z,58.17
2023-06-28T11:29:17.480Z,56.90
2023-06-28T11:31:57.306Z,52.14
2023-06-28T11:34:25.856Z,53.14
2023-06-28T11:36:54.195Z,55.06
2023-06-28T11:39:22.862Z,57.03
2023-06-28T11:41:49.978Z,58.63
2023-06-28T11:44:16.746Z,59.51
2023-06-28T11:46:46.890Z,60.65
2023-06-28T11:49:17.117Z,61.18
2023-06-28T11:51:44.686Z,61.61
2023-06-28T11:54:12.669Z,62.25
2023-06-28T11:56:39.537Z,62.56
2023-06-28T11:59:16.453Z,63.28
2023-06-28T12:01:44.642Z,63.47
2023-06-28T12:04:22.499Z,64.03
2023-06-28T12:06:52.765Z,64.21
2023-06-28T12:09:22.225Z,64.56
2023-06-28T12:12:03.913Z,64.50
2023-06-28T12:14:49.461Z,64.46
2023-06-28T12:17:17.762Z,63.72
2023-06-28T12:19:44.606Z,62.69
2023-06-28T12:22:11.326Z,61.88
2023-06-28T12:24:38.515Z,61.00
2023-06-28T12:27:07.191Z,59.94
2023-06-28T12:29:36.088Z,58.61
2023-06-28T12:32:08.355Z,59.00
2023-06-28T12:34:38.134Z,58.24
2023-06-28T12:37:11.036Z,57.51
2023-06-28T12:39:40.334Z,57.81
2023-06-28T12:42:11.123Z,58.63
2023-06-28T12:44:51.999Z,58.86
2023-06-28T12:47:19.444Z,56.98
2023-06-28T12:49:47.504Z,55.33
2023-06-28T12:52:14.624Z,53.21
2023-06-28T12:54:41.778Z,52.73
2023-06-28T12:57:09.045Z,51.94
2023-06-28T12:59:36.705Z,51.40
2023-06-28T13:02:03.723Z,51.82
2023-06-28T13:04:35.336Z,52.32
2023-06-28T13:07:04.383Z,50.94
2023-06-28T13:09:31.629Z,49.31
2023-06-28T13:11:58.516Z,47.87
2023-06-28T13:14:25.131Z,46.37
2023-06-28T13:16:52.265Z,46.42
2023-06-28T13:19:19.408Z,45.82
2023-06-28T13:21:46.825Z,42.34
2023-06-28T13:24:13.489Z,41.36
2023-06-28T13:26:40.313Z,43.03
2023-06-28T13:29:06.926Z,45.05
2023-06-28T13:31:33.554Z,45.71
2023-06-28T13:34:00.246Z,46.12
2023-06-28T13:36:27.266Z,45.91
2023-06-28T13:38:54.608Z,45.73
2023-06-28T13:41:21.300Z,45.03
2023-06-28T13:43:47.934Z,44.87
2023-06-28T13:46:15.780Z,45.04
2023-06-28T13:48:42.397Z,45.23
2023-06-28T13:51:08.966Z,45.11
2023-06-28T13:53:35.571Z,45.26
2023-06-28T13:56:02.219Z,46.03
2023-06-28T13:58:28.985Z,47.28
2023-06-28T14:00:57.350Z,47.90
2023-06-28T14:03:24.881Z,47.88
2023-06-28T14:05:52.302Z,48.49
2023-06-28T14:08:19.191Z,47.61
2023-06-28T14:10:47.165Z,48.18
2023-06-28T14:13:15.334Z,49.42
2023-06-28T14:15:43.185Z,50.20
2023-06-28T14:18:11.269Z,51.13
2023-06-28T14:20:37.871Z,52.15
2023-06-28T14:23:04.501Z,53.74
2023-06-28T14:25:31.173Z,55.12
2023-06-28T14:27:58.719Z,56.46
2023-06-28T14:30:25.472Z,57.80
2023-06-28T14:32:53.052Z,58.17
2023-06-28T14:35:22.043Z,58.83
2023-06-28T14:37:50.222Z,59.90
2023-06-28T14:40:17.296Z,60.58
2023-06-28T14:42:43.911Z,60.42
2023-06-28T14:45:13.972Z,60.83
2023-06-28T14:47:42.580Z,60.72
2023-06-28T14:50:10.540Z,61.27
2023-06-28T14:52:38.326Z,61.63
2023-06-28T14:55:05.708Z,62.21
2023-06-28T14:57:32.409Z,62.95
2023-06-28T14:59:59.046Z,63.20
2023-06-28T15:02:25.696Z,64.39
2023-06-28T15:04:52.590Z,65.20
2023-06-28T15:07:19.468Z,65.37
2023-06-28T15:09:46.277Z,66.00
2023-06-28T15:12:13.302Z,66.76
2023-06-28T15:14:40.772Z,67.60
2023-06-28T15:17:07.997Z,68.39
2023-06-28T15:19:34.835Z,68.94
2023-06-28T15:22:01.428Z,68.85
2023-06-28T15:24:28.109Z,69.60
2023-06-28T15:26:57.319Z,69.51
2023-06-28T15:29:26.215Z,70.31
2023-06-28T15:31:53.612Z,70.85
2023-06-28T15:34:20.300Z,71.03
2023-06-28T15:36:47.011Z,71.40
2023-06-28T15:39:13.691Z,71.09
2023-06-28T15:41:41.690Z,71.89
2023-06-28T15:44:09.424Z,72.86
2023-06-28T15:46:36.092Z,73.42
2023-06-28T15:49:04.124Z,74.33
2023-06-28T15:51:32.079Z,75.09
2023-06-28T15:53:58.685Z,75.97
2023-06-28T15:56:25.316Z,76.41
2023-06-28T15:58:52.053Z,78.00
2023-06-28T16:01:19.629Z,78.39
2023-06-28T16:03:46.865Z,79.55
2023-06-28T16:06:13.723Z,80.85
2023-06-28T16:08:40.676Z,81.13
2023-06-28T16:11:07.325Z,82.02
2023-06-28T16:13:34.042Z,82.61
2023-06-28T16:16:03.436Z,83.55
2023-06-28T16:18:30.566Z,83.81
2023-06-28T16:20:57.921Z,84.45
2023-06-28T16:23:25.311Z,84.61
2023-06-28T16:25:51.983Z,85.36
2023-06-28T16:28:18.777Z,86.56
2023-06-28T16:30:45.786Z,85.91
2023-06-28T16:33:12.564Z,85.29
2023-06-28T16:35:45.129Z,85.66
2023-06-28T16:38:14.385Z,85.99
2023-06-28T16:40:41.259Z,85.73
2023-06-28T16:43:08.820Z,85.72
2023-06-28T16:45:35.577Z,85.69
2023-06-28T16:48:02.553Z,86.20
2023-06-28T16:50:29.427Z,86.65
2023-06-28T16:52:56.144Z,87.33
2023-06-28T16:55:22.792Z,86.92
2023-06-28T16:57:50.930Z,87.32
2023-06-28T17:00:18.013Z,87.63
2023-06-28T17:02:48.848Z,88.82
2023-06-28T17:05:16.087Z,88.78
2023-06-28T17:07:42.923Z,88.70
2023-06-28T17:10:12.475Z,89.61
2023-06-28T17:12:43.608Z,90.56
2023-06-28T17:15:11.890Z,91.36
2023-06-28T17:17:39.370Z,92.20
2023-06-28T17:20:07.357Z,92.30
2023-06-28T17:22:35.783Z,91.19
2023-06-28T17:25:05.312Z,92.04
2023-06-28T17:27:33.051Z,92.04
2023-06-28T17:29:59.805Z,91.66
2023-06-28T17:32:27.121Z,92.57
2023-06-28T17:34:54.008Z,93.09
2023-06-28T17:37:20.559Z,92.78
2023-06-28T17:39:47.134Z,93.93
2023-06-28T17:42:13.782Z,94.42
2023-06-28T17:44:40.399Z,93.49
2023-06-28T17:47:07.135Z,93.67
2023-06-28T17:49:33.756Z,94.22
2023-06-28T17:52:00.326Z,94.63
2023-06-28T17:54:28.737Z,95.03
2023-06-28T17:56:55.320Z,95.69
2023-06-28T17:59:21.916Z,96.13
2023-06-28T18:01:48.563Z,96.56
2023-06-28T18:04:15.498Z,95.90
2023-06-28T18:06:42.479Z,95.07
2023-06-28T18:09:09.106Z,94.90
2023-06-28T18:11:35.818Z,94.56
2023-06-28T18:14:02.669Z,95.91
2023-06-28T18:16:29.314Z,96.66
2023-06-28T18:18:56.025Z,96.77
2023-06-28T18:21:22.575Z,97.15
2023-06-28T18:23:49.181Z,97.66
2023-06-28T18:26:16.885Z,97.29
2023-06-28T18:28:43.807Z,96.54
2023-06-28T18:31:10.447Z,97.01
2023-06-28T18:33:37.087Z,97.58
2023-06-28T18:36:03.865Z,97.48
2023-06-28T18:38:30.626Z,97.47
2023-06-28T18:40:58.221Z,97.25
2023-06-28T18:43:24.911Z,97.16
2023-06-28T18:45:51.632Z,97.42
2023-06-28T18:48:18.307Z,97.74
2023-06-28T18:50:53.579Z,98.62
2023-06-28T18:53:20.839Z,99.42
2023-06-28T18:55:48.279Z,99.77
2023-06-28T18:58:33.770Z,99.51
2023-06-28T19:01:00.690Z,99.85
2023-06-28T19:03:27.888Z,100.00
2023-06-28T19:05:55.245Z,100.00
2023-06-28T19:08:22.669Z,100.00
2023-06-28T19:10:50.249Z,100.00
2023-06-28T19:13:20.877Z,100.00
2023-06-28T19:15:48.065Z,100.00
2023-06-28T19:18:15.190Z,100.00
2023-06-28T19:20:42.215Z,100.00
2023-06-28T19:23:09.650Z,100.00
2023-06-28T19:25:36.623Z,100.00
2023-06-28T19:28:03.661Z,100.00
2023-06-28T19:30:30.260Z,100.00
2023-06-28T19:32:57.080Z,100.00
2023-06-28T19:35:24.514Z,100.00
2023-06-28T19:37:52.169Z,100.00
2023-06-28T19:40:19.029Z,100.00
2023-06-28T19:42:45.708Z,100.00
2023-06-28T19:45:12.430Z,100.00
2023-06-28T19:47:39.287Z,100.00
2023-06-28T19:50:07.253Z,100.00
2023-06-28T19:52:34.507Z,100.00
2023-06-28T19:55:01.402Z,100.00
2023-06-28T19:57:28.085Z,100.00
2023-06-28T19:59:54.655Z,100.00
2023-06-28T20:02:23.500Z,100.00
2023-06-28T20:04:50.410Z,100.00
2023-06-28T20:07:17.557Z,100.00
2023-06-28T20:09:44.424Z,100.00
2023-06-28T20:12:11.819Z,100.00
2023-06-28T20:14:38.877Z,100.00
2023-06-28T20:17:05.635Z,100.00
2023-06-28T20:19:32.210Z,100.00
2023-06-28T20:21:58.811Z,100.00
2023-06-28T20:24:25.441Z,100.00
2023-06-28T20:26:52.295Z,100.00
2023-06-28T20:29:18.904Z,100.00
2023-06-28T20:31:45.640Z,100.00
2023-06-28T20:34:12.428Z,100.00
2023-06-28T20:36:39.004Z,100.00
2023-06-28T20:39:05.644Z,100.00
2023-06-28T20:41:32.225Z,100.00
2023-06-28T20:43:58.868Z,100.00
2023-06-28T20:46:25.508Z,100.00
2023-06-28T20:48:52.239Z,100.00
2023-06-28T20:51:20.593Z,100.00
2023-06-28T20:53:47.313Z,100.00
2023-06-28T20:56:13.973Z,100.00
2023-06-28T20:58:41.932Z,100.00
2023-06-28T21:01:09.329Z,100.00
2023-06-28T21:03:36.267Z,100.00
2023-06-28T21:06:03.024Z,100.00
2023-06-28T21:08:29.706Z,100.00
2023-06-28T21:10:56.353Z,100.00
2023-06-28T21:13:22.999Z,100.00
2023-06-28T21:15:50.005Z,100.00
2023-06-28T21:18:17.111Z,100.00
2023-06-28T21:20:43.868Z,100.00
2023-06-28T21:23:10.506Z,100.00
2023-06-28T21:25:41.151Z,100.00
2023-06-28T21:28:08.322Z,100.00
2023-06-28T21:30:37.319Z,100.00
2023-06-28T21:33:04.591Z,100.00
2023-06-28T21:35:31.819Z,100.00
2023-06-28T21:37:58.456Z,100.00
2023-06-28T21:40:25.093Z,100.00
2023-06-28T21:42:51.757Z,100.00
2023-06-28T21:45:18.400Z,100.00
2023-06-28T21:47:45.010Z,100.00
2023-06-28T21:50:11.661Z,100.00
2023-06-28T21:52:38.291Z,100.00
2023-06-28T21:55:05.432Z,100.00
2023-06-28T21:57:32.086Z,100.00
2023-06-28T21:59:59.930Z,100.00
2023-06-28T22:02:26.760Z,100.00
2023-06-28T22:04:53.648Z,100.00
2023-06-28T22:07:21.825Z,100.00
2023-06-28T22:09:54.028Z,100.00
2023-06-28T22:12:21.371Z,100.00
2023-06-28T22:14:48.114Z,100.00
2023-06-28T22:17:15.089Z,100.00
2023-06-28T22:19:42.013Z,100.00
2023-06-28T22:22:09.981Z,100.00
2023-06-28T22:24:38.056Z,100.00
2023-06-28T22:27:04.824Z,100.00
2023-06-28T22:29:31.532Z,100.00
2023-06-28T22:31:58.262Z,100.00
2023-06-28T22:34:24.999Z,100.00
2023-06-28T22:36:51.776Z,100.00
2023-06-28T22:39:19.105Z,100.00
2023-06-28T22:41:45.850Z,100.00
2023-06-28T22:44:13.020Z,100.00
2023-06-28T22:46:39.761Z,100.00
2023-06-28T22:49:06.452Z,100.00
2023-06-28T22:51:39.658Z,100.00
2023-06-28T22:54:07.664Z,100.00
2023-06-28T22:56:36.215Z,100.00
2023-06-28T22:59:04.491Z,100.00
2023-06-28T23:01:31.534Z,100.00
2023-06-28T23:03:58.770Z,100.00
2023-06-28T23:06:28.460Z,100.00
2023-06-28T23:08:55.957Z,100.00
2023-06-28T23:11:27.709Z,100.00
2023-06-28T23:13:55.036Z,100.00
2023-06-28T23:16:23.632Z,100.00
2023-06-28T23:18:53.034Z,100.00
2023-06-28T23:21:22.241Z,100.00
2023-06-28T23:23:49.206Z,100.00
2023-06-28T23:26:18.429Z,100.00
2023-06-28T23:28:45.624Z,100.00
2023-06-28T23:31:14.036Z,100.00
2023-06-28T23:33:42.498Z,100.00
2023-06-28T23:36:10.455Z,100.00
2023-06-28T23:38:39.570Z,100.00
2023-06-28T23:41:07.518Z,100.00
2023-06-28T23:43:35.071Z,100.00
2023-06-28T23:46:03.893Z,100.00
2023-06-28T23:48:35.331Z,100.00
2023-06-28T23:51:06.877Z,100.00
2023-06-28T23:53:42.978Z,100.00
2023-06-28T23:56:11.206Z,100.00
2023-06-28T23:58:40.398Z,100.00
